createdAt,value
2017-06-26T17:14:51.210Z,96400.41
2017-06-26T17:17:18.203Z,96400.94
2017-06-26T17:19:44.850Z,96398.80
2017-06-26T17:22:11.623Z,96400.06
2017-06-26T17:24:39.048Z,96401.14
2017-06-26T17:27:05.763Z,96392.63
2017-06-26T17:29:32.842Z,96405.16
2017-06-26T17:31:59.560Z,96402.30
2017-06-26T17:34:26.309Z,96398.34
2017-06-26T17:36:53.029Z,96398.47
2017-06-26T17:39:19.703Z,96395.00
2017-06-26T17:41:53.594Z,96400.53
2017-06-26T17:44:20.317Z,96399.83
2017-06-26T17:46:47.001Z,96399.70
2017-06-26T19:00:06.941Z,96423.14
2017-06-26T19:02:33.641Z,96423.96
2017-06-26T19:05:00.316Z,96421.91
2017-06-26T19:07:26.983Z,96425.96
2017-06-26T19:09:53.673Z,96428.09
2017-06-26T19:12:20.716Z,96429.23
2017-06-26T19:14:47.389Z,96431.73
2017-06-26T19:17:15.083Z,96424.50
2017-06-26T19:19:42.559Z,96418.52
2017-06-26T19:22:09.259Z,96425.91
2017-06-26T19:24:37.121Z,96425.30
2017-06-26T19:27:04.685Z,96423.22
2017-06-26T19:29:32.287Z,96433.77
2017-06-26T19:31:59.101Z,96432.33
2017-06-26T19:34:25.762Z,96432.93
2017-06-26T19:36:52.731Z,96438.84
2017-06-26T19:39:19.385Z,96442.64
2017-06-26T19:41:46.069Z,96442.00
2017-06-26T19:44:12.777Z,96443.18
2017-06-26T19:46:40.203Z,96437.80
2017-06-26T19:49:07.265Z,96438.70
2017-06-26T19:51:33.989Z,96437.85
2017-06-26T19:54:00.915Z,96437.22
2017-06-26T19:56:27.607Z,96438.38
2017-06-26T19:58:55.056Z,96450.09
2017-06-26T20:01:22.927Z,96460.70
2017-06-26T20:03:50.355Z,96456.34
2017-06-26T20:06:17.356Z,96459.05
2017-06-26T20:08:44.091Z,96462.03
2017-06-26T20:11:10.989Z,96458.33
2017-06-26T20:13:38.115Z,96458.55
2017-06-26T20:16:04.782Z,96461.06
2017-06-26T20:18:31.429Z,96462.56
2017-06-26T20:20:58.229Z,96464.84
2017-06-26T20:23:24.900Z,96465.33
2017-06-26T20:25:51.918Z,96466.72
2017-06-26T20:28:18.859Z,96463.78
2017-06-26T20:30:45.541Z,96471.17
2017-06-26T20:33:13.055Z,96467.42
2017-06-26T20:35:39.795Z,96467.79
2017-06-26T20:38:06.462Z,96463.87
2017-06-26T20:40:33.688Z,96465.31
2017-06-26T20:43:00.363Z,96469.21
2017-06-26T20:45:27.052Z,96468.41
2017-06-26T20:47:53.851Z,96463.17
2017-06-26T20:50:21.363Z,96465.69
2017-06-26T20:52:48.439Z,96463.47
2017-06-26T20:55:15.120Z,96458.55
2017-06-26T20:57:41.865Z,96458.97
2017-06-26T21:00:08.746Z,96461.00
2017-06-26T21:02:35.408Z,96470.75
2017-06-26T21:05:02.530Z,96467.34
2017-06-26T21:07:29.198Z,96461.50
2017-06-26T21:09:55.854Z,96467.86
2017-06-26T21:12:23.280Z,96466.55
2017-06-26T21:14:49.971Z,96461.61
2017-06-26T21:17:16.971Z,96453.85
2017-06-26T21:19:43.681Z,96449.06
2017-06-26T21:22:10.343Z,96449.97
2017-06-26T21:24:37.203Z,96447.03
2017-06-26T21:27:04.611Z,96450.01
2017-06-26T21:29:31.665Z,96453.36
2017-06-26T21:31:58.388Z,96449.06
2017-06-26T21:34:25.066Z,96445.06
2017-06-26T21:36:51.744Z,96433.19
2017-06-26T21:39:18.520Z,96441.10
2017-06-26T21:41:45.668Z,96441.28
2017-06-26T21:44:12.348Z,96441.28
2017-06-26T21:46:39.026Z,96445.35
2017-06-26T21:49:05.706Z,96453.78
2017-06-26T21:51:32.379Z,96463.27
2017-06-26T21:54:00.099Z,96454.38
2017-06-26T21:56:26.824Z,96448.52
2017-06-26T21:58:53.677Z,96450.36
2017-06-26T22:01:20.546Z,96453.69
2017-06-26T22:03:47.265Z,96447.78
2017-06-26T22:06:14.317Z,96452.09
2017-06-26T22:08:40.966Z,96447.27
2017-06-26T22:11:07.626Z,96462.16
2017-06-26T22:13:35.079Z,96454.95
2017-06-26T22:16:02.522Z,96452.45
2017-06-26T22:18:29.560Z,96450.52
2017-06-26T22:20:56.203Z,96453.33
2017-06-26T22:23:23.042Z,96457.70
2017-06-26T22:25:49.719Z,96456.22
2017-06-26T22:28:16.372Z,96460.97
2017-06-26T22:30:43.355Z,96462.90
2017-06-26T22:33:10.011Z,96471.02
2017-06-26T22:35:36.675Z,96473.61
2017-06-26T22:38:03.462Z,96482.11
2017-06-26T22:40:30.156Z,96480.50
2017-06-26T22:42:57.163Z,96481.39
2017-06-26T22:45:23.825Z,96481.16
2017-06-26T22:47:51.260Z,96480.08
2017-06-26T22:50:17.962Z,96483.81
2017-06-26T22:52:44.630Z,96480.08
2017-06-26T22:55:11.861Z,96481.91
2017-06-26T22:57:38.580Z,96488.52
2017-06-26T23:00:05.243Z,96490.67
2017-06-26T23:02:31.978Z,96485.73
2017-06-26T23:04:58.662Z,96490.23
2017-06-26T23:07:25.686Z,96490.71
2017-06-26T23:09:52.329Z,96488.70
2017-06-26T23:12:18.990Z,96484.23
2017-06-26T23:14:46.385Z,96491.66
2017-06-26T23:17:13.255Z,96493.81
2017-06-26T23:19:40.489Z,96495.13
2017-06-26T23:22:07.392Z,96497.21
2017-06-26T23:24:34.814Z,96492.39
2017-06-26T23:27:01.482Z,96496.41
2017-06-26T23:29:28.987Z,96494.09
2017-06-26T23:31:55.982Z,96500.56
2017-06-26T23:34:23.375Z,96497.76
2017-06-26T23:36:50.132Z,96501.70
2017-06-26T23:39:16.975Z,96498.38
2017-06-26T23:41:43.813Z,96502.62
2017-06-26T23:44:10.861Z,96500.05
2017-06-26T23:46:37.600Z,96501.72
2017-06-26T23:49:04.235Z,96510.41
2017-06-26T23:51:30.910Z,96514.84
2017-06-26T23:53:57.563Z,96506.91
2017-06-26T23:56:25.307Z,96502.09
2017-06-26T23:58:52.015Z,96497.35
